Coral Gables, Florida
Current Conditions -  °F | °C
As of 11:18 AM on Wednesday 26 Nov 2014 (Local Time) from KMIA Reporting Station
Overcast Overcast  
Wind Chill: 72°   Ceiling: 1000
Heat Index: 72°   Visibility: 10mi
Dew Point: 66°   Wind: 7mph
Humidity: 81%   Direction: NA
Pressure: 30.09"   Gusts: 17mph
Location:  25.75°N, 80.26°W
Report Text: KMIA 261618Z VRB06G15KT 10SM BKN010 BKN015 BKN070 OVC250 22/19 A3009 RMK AO2 T02220189
Loading
Personal Weather Stations






























Interactive Weather Map New forecast layout! Learn more

10-Day Weather Forecast

Advertisements
Track Severe Weather on mobile